Time;durP1;ratioP1;P1;durP2;ratioP2;P2;SDS_P1;SDS_P2;PMS_P1;PMS_P2;Temp;Humidity;BMP_temperature;BMP_pressure;BME280_temperature;BME280_humidity;BME280_pressure;Samples;Min_cycle;Max_cycle;Signal;HPM_P1;HPM_P2
2022/02/10 00:06:51;;;;;;;3.70;1.58;;;2.80;90.80;;;;;;6300574;28;20171;-82
2022/02/10 00:20:20;;;;;;;6.47;2.40;;;2.60;90.90;;;;;;6181040;28;20603;-82
2022/02/10 00:23:36;;;;;;;6.30;2.85;;;2.60;91.20;;;;;;6282959;28;20056;-82
2022/02/10 00:36:56;;;;;;;3.85;2.35;;;2.50;90.90;;;;;;6264483;28;20460;-82
2022/02/10 00:40:11;;;;;;;7.55;3.40;;;2.50;91.10;;;;;;6307359;28;20044;-82
2022/02/10 00:43:14;;;;;;;13.35;2.50;;;2.50;91.10;;;;;;6307211;28;20098;-81
2022/02/10 00:46:15;;;;;;;5.72;3.00;;;2.50;91.20;;;;;;6306828;28;20064;-81
2022/02/10 00:49:17;;;;;;;3.15;1.83;;;2.40;91.20;;;;;;6308535;28;20048;-82
2022/02/10 00:52:19;;;;;;;10.88;3.55;;;2.40;91.40;;;;;;6307429;28;20783;-83
2022/02/10 00:55:27;;;;;;;8.50;2.58;;;2.40;91.50;;;;;;6310238;28;20067;-82
2022/02/10 00:58:32;;;;;;;5.25;2.65;;;2.40;91.40;;;;;;6308611;28;20110;-82
2022/02/10 01:12:04;;;;;;;7.47;2.38;;;2.30;91.50;;;;;;6307799;28;20040;-82
2022/02/10 01:31:42;;;;;;;3.80;1.90;;;2.20;91.60;;;;;;6230283;28;20057;-80
2022/02/10 01:34:48;;;;;;;4.72;2.28;;;2.20;91.70;;;;;;6229421;28;20041;-79
2022/02/10 01:37:50;;;;;;;7.47;2.47;;;2.20;91.60;;;;;;6221923;28;20051;-79
2022/02/10 01:41:24;;;;;;;6.65;2.53;;;2.20;91.70;;;;;;6256047;28;20065;-80
2022/02/10 01:58:04;;;;;;;3.22;1.88;;;2.00;91.80;;;;;;6223483;28;20046;-79
2022/02/10 02:04:28;;;;;;;7.30;2.78;;;2.00;91.90;;;;;;6229915;28;20057;-79
2022/02/10 02:07:31;;;;;;;7.20;2.95;;;2.00;92.00;;;;;;6243998;28;20057;-80
2022/02/10 02:10:33;;;;;;;9.70;3.45;;;2.00;92.00;;;;;;6241048;28;20473;-80
2022/02/10 02:13:35;;;;;;;6.13;2.55;;;2.10;92.00;;;;;;6233305;28;20103;-79
2022/02/10 02:16:45;;;;;;;8.40;2.97;;;2.10;91.80;;;;;;6255010;28;20447;-79
2022/02/10 02:19:47;;;;;;;5.35;2.58;;;2.00;91.90;;;;;;6254272;28;20048;-79
2022/02/10 02:22:50;;;;;;;10.20;3.38;;;2.00;91.90;;;;;;6240587;28;20423;-79
2022/02/10 02:25:57;;;;;;;7.47;2.20;;;1.90;92.10;;;;;;6235499;28;20124;-79
2022/02/10 02:29:03;;;;;;;4.63;2.17;;;1.90;92.20;;;;;;6253336;28;20411;-79
2022/02/10 02:32:11;;;;;;;8.38;2.72;;;1.80;92.10;;;;;;6228802;28;20060;-79
2022/02/10 02:35:29;;;;;;;7.60;2.63;;;1.80;92.10;;;;;;6229685;28;20041;-78
2022/02/10 02:38:48;;;;;;;7.05;2.22;;;1.80;92.20;;;;;;6222387;28;20062;-78
2022/02/10 03:05:27;;;;;;;5.93;2.75;;;1.80;91.90;;;;;;6248247;28;20074;-80
2022/02/10 03:08:38;;;;;;;7.55;2.67;;;1.80;92.00;;;;;;6222763;28;20151;-78
2022/02/10 03:11:43;;;;;;;5.60;3.60;;;1.90;92.20;;;;;;6253188;28;20132;-79
2022/02/10 03:14:48;;;;;;;7.10;3.00;;;1.90;92.00;;;;;;6252663;28;20049;-79
2022/02/10 03:17:59;;;;;;;8.18;2.47;;;2.00;92.00;;;;;;6246137;28;20430;-78
2022/02/10 03:21:24;;;;;;;8.07;2.30;;;2.00;91.90;;;;;;6228465;28;20065;-78
2022/02/10 04:01:46;;;;;;;4.93;2.30;;;2.60;91.90;;;;;;6253068;28;20503;-79
2022/02/10 04:05:23;;;;;;;3.85;2.25;;;2.60;91.80;;;;;;6227874;28;20052;-79
2022/02/10 04:08:41;;;;;;;6.28;2.38;;;2.50;91.70;;;;;;6227540;28;20046;-79
2022/02/10 04:15:13;;;;;;;5.38;2.05;;;2.40;91.80;;;;;;6256203;28;20057;-80
2022/02/10 04:21:48;;;;;;;4.55;1.90;;;2.40;91.90;;;;;;6239432;28;20045;-79
2022/02/10 04:25:22;;;;;;;7.57;1.85;;;2.30;91.80;;;;;;6259612;28;20096;-79
2022/02/10 04:28:39;;;;;;;3.85;2.05;;;2.30;91.60;;;;;;6232223;28;20046;-80
2022/02/10 04:58:46;;;;;;;7.07;3.65;;;2.10;91.60;;;;;;6214342;28;20065;-79
2022/02/10 05:02:05;;;;;;;12.63;3.45;;;2.10;91.70;;;;;;6223086;28;20054;-78
2022/02/10 05:15:58;;;;;;;4.00;2.28;;;2.20;91.80;;;;;;6238123;28;19918;-78
2022/02/10 05:35:57;;;;;;;9.90;2.55;;;2.00;91.70;;;;;;6266845;28;20037;-78
2022/02/10 05:39:08;;;;;;;7.63;2.45;;;2.00;91.70;;;;;;6288569;28;20064;-80
2022/02/10 05:42:33;;;;;;;6.82;2.55;;;2.00;91.70;;;;;;6297971;28;20537;-80
2022/02/10 05:45:43;;;;;;;4.82;2.22;;;2.10;91.80;;;;;;6298169;28;20099;-80
2022/02/10 05:49:08;;;;;;;9.77;3.15;;;2.20;91.80;;;;;;6298684;28;20080;-78
2022/02/10 05:55:38;;;;;;;6.35;2.40;;;2.40;91.50;;;;;;6273336;28;20041;-80
2022/02/10 05:59:11;;;;;;;9.40;3.38;;;2.40;91.30;;;;;;6273006;28;20541;-78
2022/02/10 06:49:21;;;;;;;6.15;2.72;;;2.00;91.70;;;;;;6261046;28;20045;-77
2022/02/10 06:52:29;;;;;;;8.35;2.95;;;2.00;91.70;;;;;;6253934;28;20049;-78
2022/02/10 06:56:07;;;;;;;13.20;2.85;;;1.90;91.70;;;;;;6278689;28;20274;-78
2022/02/10 07:02:58;;;;;;;11.55;3.58;;;1.90;91.80;;;;;;6281503;28;20049;-78
2022/02/10 07:06:24;;;;;;;11.93;3.20;;;1.90;91.90;;;;;;6279045;28;20152;-78
2022/02/10 07:09:43;;;;;;;10.45;3.13;;;2.00;91.90;;;;;;6280844;28;20052;-78
2022/02/10 07:50:02;;;;;;;18.70;5.22;;;4.00;90.90;;;;;;6203917;28;19963;-84
2022/02/10 07:53:22;;;;;;;10.82;5.43;;;4.20;90.60;;;;;;6230660;28;20050;-85
2022/02/10 07:56:47;;;;;;;14.65;4.93;;;4.50;90.50;;;;;;6229702;28;20073;-84
2022/02/10 08:50:07;;;;;;;4.97;2.60;;;9.30;81.70;;;;;;6231310;28;20046;-83
2022/02/10 08:56:49;;;;;;;10.32;2.38;;;10.00;79.40;;;;;;6221235;28;20610;-86
2022/02/10 09:00:16;;;;;;;6.65;2.53;;;10.20;78.00;;;;;;6254567;28;20125;-84
2022/02/10 09:03:35;;;;;;;4.63;2.25;;;10.20;77.30;;;;;;6253190;28;20057;-83
2022/02/10 09:06:59;;;;;;;9.40;3.10;;;10.30;76.60;;;;;;6261666;28;20044;-85
2022/02/10 09:13:39;;;;;;;8.48;2.95;;;10.60;75.30;;;;;;6253224;28;20049;-83
2022/02/10 09:17:10;;;;;;;8.80;2.58;;;10.70;74.60;;;;;;6253503;28;20085;-85
2022/02/10 10:00:38;;;;;;;10.15;3.72;;;11.80;69.80;;;;;;6278209;28;20057;-83
2022/02/10 10:03:44;;;;;;;11.93;3.75;;;11.90;69.80;;;;;;6278754;28;20041;-84
2022/02/10 10:07:02;;;;;;;9.05;3.75;;;12.00;69.90;;;;;;6268377;28;20041;-82
2022/02/10 10:17:09;;;;;;;6.80;3.00;;;12.10;69.50;;;;;;6275116;28;20056;-82
2022/02/10 10:20:23;;;;;;;6.75;3.00;;;11.90;69.70;;;;;;6283034;28;20053;-82
2022/02/10 10:23:41;;;;;;;9.60;3.55;;;11.80;69.70;;;;;;6282553;28;20049;-82
2022/02/10 10:50:24;;;;;;;8.75;3.90;;;11.40;69.80;;;;;;6282143;28;20090;-82
2022/02/10 10:53:33;;;;;;;8.27;4.15;;;11.30;70.40;;;;;;6282430;28;20124;-82
2022/02/10 10:56:38;;;;;;;10.68;3.78;;;11.20;70.30;;;;;;6282462;28;20049;-82
2022/02/10 11:00:13;;;;;;;8.88;3.85;;;11.10;70.90;;;;;;6282154;28;20053;-82
2022/02/10 11:37:39;;;;;;;5.90;3.10;;;10.80;73.10;;;;;;6272100;28;20041;-82
2022/02/10 11:41:37;;;;;;;13.23;3.58;;;11.00;72.90;;;;;;6280436;28;20445;-83
2022/02/10 12:40:11;;;;;;;7.65;3.47;;;11.00;71.30;;;;;;6254302;28;20095;-82
2022/02/10 13:24:28;;;;;;;9.15;4.40;;;12.00;66.20;;;;;;6273946;28;20552;-82
2022/02/10 13:28:02;;;;;;;7.55;4.38;;;12.10;66.30;;;;;;6286381;28;20463;-84
2022/02/10 13:48:23;;;;;;;6.05;3.38;;;11.70;65.90;;;;;;6255564;28;20134;-83
2022/02/10 14:12:31;;;;;;;10.93;6.05;;;11.20;65.70;;;;;;6246865;28;20056;-82
2022/02/10 14:15:29;;;;;;;12.95;8.52;;;11.20;65.70;;;;;;6255575;28;20502;-82
2022/02/10 14:18:32;;;;;;;5.38;3.15;;;11.20;65.80;;;;;;6255222;28;20129;-82
2022/02/10 14:21:35;;;;;;;9.02;3.53;;;11.20;66.00;;;;;;6255828;28;20041;-85
2022/02/10 14:27:58;;;;;;;14.77;5.75;;;11.10;66.60;;;;;;6270571;28;20041;-84
2022/02/10 14:31:02;;;;;;;9.48;4.38;;;11.10;66.70;;;;;;6255449;28;20048;-84
2022/02/10 14:34:03;;;;;;;16.50;6.63;;;11.00;66.90;;;;;;6255817;28;20451;-82
2022/02/10 14:37:24;;;;;;;12.70;4.85;;;11.00;67.10;;;;;;6264427;28;20101;-83
2022/02/10 14:40:54;;;;;;;9.45;4.65;;;11.10;67.00;;;;;;6255326;28;20056;-81
2022/02/10 15:11:19;;;;;;;6.28;3.83;;;10.20;69.70;;;;;;6278320;28;20119;-83
2022/02/10 15:18:17;;;;;;;8.07;4.40;;;10.00;70.60;;;;;;6253319;28;19936;-82
2022/02/10 16:12:14;;;;;;;8.18;2.33;;;9.80;72.20;;;;;;6277744;28;20048;-83
2022/02/10 16:15:40;;;;;;;7.65;3.50;;;9.80;72.30;;;;;;6278822;28;20045;-85
2022/02/10 16:18:44;;;;;;;6.97;3.42;;;9.80;72.20;;;;;;6278014;28;20037;-83
2022/02/10 16:21:58;;;;;;;6.80;3.55;;;9.80;72.40;;;;;;6278397;28;20041;-84
2022/02/10 16:25:04;;;;;;;10.50;4.47;;;9.70;72.50;;;;;;6279069;28;20053;-84
2022/02/10 16:28:12;;;;;;;8.00;3.45;;;9.70;72.70;;;;;;6277604;28;20167;-83
2022/02/10 16:31:16;;;;;;;7.72;3.78;;;9.70;72.70;;;;;;6266579;28;20053;-83
2022/02/10 16:34:18;;;;;;;6.53;2.60;;;9.70;72.90;;;;;;6277346;28;20041;-84
2022/02/10 16:37:21;;;;;;;4.78;3.10;;;9.70;73.10;;;;;;6278272;28;20056;-85
2022/02/10 16:40:25;;;;;;;6.88;2.85;;;9.60;73.00;;;;;;6280416;28;20048;-84
2022/02/10 16:43:27;;;;;;;7.28;3.60;;;9.60;73.30;;;;;;6276255;28;20562;-83
2022/02/10 16:46:28;;;;;;;7.68;3.13;;;9.50;73.30;;;;;;6275500;28;20051;-83
2022/02/10 16:49:30;;;;;;;8.05;3.80;;;9.60;73.50;;;;;;6276331;28;20402;-82
2022/02/10 16:52:37;;;;;;;6.97;2.65;;;9.50;73.30;;;;;;6275753;28;20112;-84
2022/02/10 16:55:46;;;;;;;7.63;3.20;;;9.60;73.30;;;;;;6254197;28;20465;-84
2022/02/10 16:58:58;;;;;;;10.60;2.95;;;9.50;73.30;;;;;;6253698;28;20550;-85
2022/02/10 17:05:34;;;;;;;7.85;2.95;;;9.50;73.20;;;;;;6258009;28;20179;-84
2022/02/10 17:19:02;;;;;;;;;;;9.50;72.90;;;;;;6281495;28;20072;-83
2022/02/10 17:25:28;;;;;;;3.58;2.60;;;9.40;73.80;;;;;;6283178;28;20064;-84
2022/02/10 17:28:33;;;;;;;7.72;2.78;;;9.50;73.90;;;;;;6281248;28;20052;-84
2022/02/10 17:31:44;;;;;;;6.68;2.60;;;9.50;73.30;;;;;;6278070;28;20049;-84
2022/02/10 17:35:17;;;;;;;6.47;3.03;;;9.50;73.30;;;;;;6279721;28;20053;-83
2022/02/10 17:42:12;;;;;;;4.43;2.08;;;9.70;73.80;;;;;;6278799;28;20406;-82
2022/02/10 17:52:04;;;;;;;4.95;2.20;;;9.90;73.10;;;;;;6278979;28;20041;-82
2022/02/10 17:55:10;;;;;;;8.38;2.85;;;10.00;72.60;;;;;;6289149;28;20045;-82
2022/02/10 17:58:11;;;;;;;7.50;3.65;;;10.00;72.10;;;;;;6297113;28;20049;-81
2022/02/10 18:01:14;;;;;;;12.13;2.80;;;10.00;72.10;;;;;;6284008;28;20077;-83
2022/02/10 18:04:18;;;;;;;7.82;3.67;;;10.00;72.10;;;;;;6289824;28;20104;-82
2022/02/10 18:07:20;;;;;;;5.82;2.92;;;10.00;72.90;;;;;;6271757;28;20097;-84
2022/02/10 18:10:59;;;;;;;4.85;2.92;;;10.00;72.00;;;;;;6280676;28;20106;-84
2022/02/10 18:13:54;;;;;;;8.50;3.17;;;9.90;72.10;;;;;;6279909;28;20506;-84
2022/02/10 18:17:05;;;;;;;5.80;2.95;;;10.00;72.70;;;;;;6280569;28;20108;-84
2022/02/10 18:20:12;;;;;;;5.97;3.42;;;9.80;72.20;;;;;;6282191;28;20059;-86
2022/02/10 18:23:17;;;;;;;7.53;3.75;;;9.70;72.50;;;;;;6283885;28;20414;-84
2022/02/10 18:26:30;;;;;;;11.35;3.05;;;9.60;72.60;;;;;;6279859;28;20052;-82
2022/02/10 18:29:49;;;;;;;17.17;3.33;;;9.50;72.90;;;;;;6278715;28;20091;-83
2022/02/10 19:06:49;;;;;;;7.38;3.20;;;8.40;76.60;;;;;;6219153;28;20042;-85
2022/02/10 19:09:54;;;;;;;7.25;3.10;;;8.40;77.10;;;;;;6253337;28;20041;-84
2022/02/10 19:12:58;;;;;;;5.70;3.50;;;8.30;77.20;;;;;;6252961;28;20053;-86
2022/02/10 19:16:00;;;;;;;9.88;3.30;;;8.20;77.80;;;;;;6253496;28;20116;-84
2022/02/10 19:19:02;;;;;;;5.47;2.70;;;8.20;77.70;;;;;;6266362;28;20045;-85
2022/02/10 19:22:05;;;;;;;7.38;3.47;;;8.20;77.80;;;;;;6284225;22;20132;-79
2022/02/10 19:25:09;;;;;;;6.75;2.63;;;8.20;77.80;;;;;;6249800;28;20137;-79
2022/02/10 19:28:10;;;;;;;9.65;3.30;;;8.20;77.70;;;;;;6273702;28;20063;-78
2022/02/10 19:31:16;;;;;;;7.03;3.40;;;8.20;77.80;;;;;;6280740;28;20531;-80
2022/02/10 19:34:18;;;;;;;4.97;3.03;;;8.30;77.60;;;;;;6302615;28;20080;-80
2022/02/10 19:37:22;;;;;;;8.93;3.55;;;8.30;77.50;;;;;;6289782;28;20106;-80
2022/02/10 19:40:24;;;;;;;7.88;3.40;;;8.30;77.40;;;;;;6299132;28;20063;-80
2022/02/10 19:43:27;;;;;;;6.97;3.17;;;8.40;77.40;;;;;;6299199;28;20044;-79
2022/02/10 19:46:29;;;;;;;10.93;3.55;;;8.50;77.10;;;;;;6297006;28;20174;-79
2022/02/10 19:49:31;;;;;;;8.18;2.80;;;8.60;77.00;;;;;;6299402;28;20037;-79
2022/02/10 19:52:37;;;;;;;6.90;3.20;;;8.60;76.80;;;;;;6300439;28;20048;-80
2022/02/10 19:55:43;;;;;;;6.28;2.50;;;8.70;76.50;;;;;;6298659;28;20045;-79
2022/02/10 19:58:45;;;;;;;7.38;3.17;;;8.80;76.30;;;;;;6300089;28;20123;-80
2022/02/10 20:01:49;;;;;;;5.28;2.33;;;8.80;76.00;;;;;;6300766;28;20047;-80
2022/02/10 20:04:51;;;;;;;10.95;2.63;;;8.90;75.80;;;;;;6301124;28;20162;-79
2022/02/10 20:07:54;;;;;;;7.40;3.10;;;8.90;75.80;;;;;;6291538;28;20040;-80
2022/02/10 20:10:56;;;;;;;7.85;3.17;;;8.90;75.90;;;;;;6299772;28;20048;-80
2022/02/10 20:13:58;;;;;;;6.47;2.65;;;8.90;75.50;;;;;;6300403;28;20497;-79
2022/02/10 20:17:01;;;;;;;7.05;2.88;;;8.90;75.50;;;;;;6302918;28;20048;-79
2022/02/10 20:20:03;;;;;;;6.43;2.80;;;8.90;75.30;;;;;;6300527;28;20040;-82
2022/02/10 20:23:06;;;;;;;7.53;3.17;;;9.00;75.00;;;;;;6301472;28;20072;-80
2022/02/10 20:26:10;;;;;;;7.05;3.60;;;8.90;74.80;;;;;;6299092;28;20048;-79
2022/02/10 20:29:12;;;;;;;8.40;3.10;;;8.90;74.90;;;;;;6301746;28;20132;-80
2022/02/10 20:32:14;;;;;;;9.27;4.30;;;8.90;75.00;;;;;;6299820;28;20136;-81
2022/02/10 20:35:17;;;;;;;10.93;4.72;;;8.90;74.90;;;;;;6281105;28;20040;-80
2022/02/10 20:38:20;;;;;;;8.70;4.53;;;8.90;75.20;;;;;;6290848;28;20452;-80
2022/02/10 20:41:24;;;;;;;8.85;4.55;;;8.90;75.20;;;;;;6301691;28;20127;-80
2022/02/10 20:44:27;;;;;;;10.15;4.82;;;8.90;75.20;;;;;;6299777;28;20058;-80
2022/02/10 20:47:29;;;;;;;8.05;4.65;;;9.00;75.10;;;;;;6299538;28;20055;-82
2022/02/10 20:50:32;;;;;;;13.45;5.32;;;9.00;75.10;;;;;;6304064;28;20137;-79
2022/02/10 20:53:38;;;;;;;9.32;4.60;;;9.00;74.90;;;;;;6302021;28;20489;-81
2022/02/10 20:56:40;;;;;;;10.63;5.63;;;9.10;74.80;;;;;;6305290;28;20133;-79
2022/02/10 20:59:45;;;;;;;6.70;3.92;;;9.10;74.80;;;;;;6287463;28;20040;-80
2022/02/10 21:02:48;;;;;;;7.53;4.90;;;9.20;74.80;;;;;;6298620;28;20041;-79
2022/02/10 21:05:53;;;;;;;13.23;5.93;;;9.20;74.80;;;;;;6284878;28;20437;-80
2022/02/10 21:09:01;;;;;;;10.23;5.95;;;9.30;74.80;;;;;;6297386;28;20055;-78
2022/02/10 21:12:05;;;;;;;7.18;4.60;;;9.30;74.60;;;;;;6303221;28;20464;-79
2022/02/10 21:15:12;;;;;;;8.93;4.93;;;9.40;74.60;;;;;;6301673;28;20048;-79
2022/02/10 21:18:15;;;;;;;8.80;5.00;;;9.40;74.50;;;;;;6302408;28;20524;-79
2022/02/10 21:21:18;;;;;;;9.25;4.53;;;9.40;74.40;;;;;;6303439;28;20052;-79
2022/02/10 21:24:26;;;;;;;7.72;4.20;;;9.40;74.50;;;;;;6303790;28;20077;-80
2022/02/10 21:27:32;;;;;;;7.88;3.97;;;9.50;74.30;;;;;;6302904;28;20044;-80
2022/02/10 21:30:34;;;;;;;10.98;5.53;;;9.50;74.30;;;;;;6303086;28;20048;-80
2022/02/10 21:33:50;;;;;;;16.00;6.30;;;9.50;74.30;;;;;;6296808;28;20528;-79
2022/02/10 21:37:01;;;;;;;8.93;5.40;;;9.60;74.30;;;;;;6285271;28;20135;-79
2022/02/10 21:40:14;;;;;;;7.35;3.50;;;9.50;74.30;;;;;;6302354;28;20510;-79
2022/02/10 21:57:25;;;;;;;7.72;3.17;;;9.40;74.70;;;;;;6286625;28;20055;-80
2022/02/10 22:10:30;;;;;;;6.90;3.45;;;9.30;75.50;;;;;;6274964;28;20049;-78
2022/02/10 22:17:09;;;;;;;12.70;4.28;;;9.30;75.80;;;;;;6276907;28;20418;-78
2022/02/10 22:20:15;;;;;;;;;;;9.30;76.50;;;;;;6275762;28;20110;-80
2022/02/10 22:23:20;;;;;;;7.43;3.45;;;9.30;75.80;;;;;;6275625;28;20424;-80
2022/02/10 22:26:24;;;;;;;8.70;4.57;;;9.40;75.80;;;;;;6275688;28;20439;-79
2022/02/10 22:29:31;;;;;;;9.57;3.90;;;9.40;75.90;;;;;;6275164;28;20065;-80
2022/02/10 22:32:46;;;;;;;11.10;4.43;;;9.40;76.00;;;;;;6275387;28;20088;-80
2022/02/10 22:35:49;;;;;;;7.35;3.30;;;9.40;76.20;;;;;;6282930;28;20064;-80
2022/02/10 22:38:54;;;;;;;6.75;3.55;;;9.40;76.10;;;;;;6293188;28;20040;-80
2022/02/10 22:41:56;;;;;;;7.30;2.85;;;9.30;76.20;;;;;;6299088;28;20037;-80
2022/02/10 22:44:59;;;;;;;8.25;3.38;;;9.30;76.30;;;;;;6300023;28;20052;-79
2022/02/10 22:48:01;;;;;;;9.75;4.00;;;9.30;76.40;;;;;;6299320;28;20117;-80
2022/02/10 22:51:04;;;;;;;10.00;3.88;;;9.40;76.40;;;;;;6299242;28;20052;-80
2022/02/10 22:54:06;;;;;;;5.68;2.97;;;9.40;76.50;;;;;;6299727;28;20493;-80
2022/02/10 22:57:08;;;;;;;9.05;3.20;;;9.30;76.50;;;;;;6299551;28;20242;-80
2022/02/10 23:00:13;;;;;;;5.45;3.20;;;9.40;76.50;;;;;;6299908;28;20045;-79
2022/02/10 23:03:17;;;;;;;8.93;4.28;;;9.40;76.60;;;;;;6299300;28;20059;-80
2022/02/10 23:06:19;;;;;;;7.28;4.25;;;9.40;77.20;;;;;;6291050;28;20131;-80
2022/02/10 23:09:26;;;;;;;9.57;3.58;;;9.40;76.60;;;;;;6276938;28;20505;-80
2022/02/10 23:12:29;;;;;;;7.88;3.97;;;9.40;76.50;;;;;;6274585;28;20132;-80
2022/02/10 23:15:37;;;;;;;7.53;4.05;;;9.40;76.50;;;;;;6274476;28;20041;-80
2022/02/10 23:18:39;;;;;;;10.93;5.18;;;9.30;76.60;;;;;;6274879;28;20045;-80
2022/02/10 23:21:41;;;;;;;9.77;4.63;;;9.30;76.50;;;;;;6274511;28;20414;-80
2022/02/10 23:24:43;;;;;;;9.73;4.60;;;9.20;76.60;;;;;;6274153;28;20133;-80
2022/02/10 23:27:44;;;;;;;9.82;5.07;;;9.20;76.60;;;;;;6273173;28;20045;-81
2022/02/10 23:30:47;;;;;;;11.98;4.25;;;9.20;77.00;;;;;;6273967;28;20132;-81
2022/02/10 23:33:53;;;;;;;9.60;4.45;;;9.10;77.00;;;;;;6274522;28;20143;-80
2022/02/10 23:36:55;;;;;;;11.05;5.45;;;9.10;77.40;;;;;;6286527;28;20053;-79
2022/02/10 23:39:57;;;;;;;13.02;4.72;;;9.10;77.80;;;;;;6298700;28;20068;-80
2022/02/10 23:42:59;;;;;;;9.95;4.20;;;9.10;78.10;;;;;;6298750;28;20476;-80
2022/02/10 23:46:02;;;;;;;6.95;3.80;;;9.10;78.60;;;;;;6298348;28;20074;-80
2022/02/10 23:49:04;;;;;;;15.77;4.88;;;9.10;78.80;;;;;;6298608;28;20498;-80
2022/02/10 23:52:08;;;;;;;12.77;4.05;;;9.10;79.00;;;;;;6299923;28;20521;-80
2022/02/10 23:55:17;;;;;;;7.80;3.47;;;9.20;78.80;;;;;;6297278;28;20186;-79
2022/02/10 23:58:29;;;;;;;9.13;3.95;;;9.20;78.20;;;;;;6297441;28;20505;-79
